createdAt,value
2022-11-10T00:02:38.043Z,102057.50
2022-11-10T00:05:24.124Z,102061.50
2022-11-10T00:08:12.192Z,102064.25
2022-11-10T00:10:57.798Z,102065.75
2022-11-10T00:14:02.811Z,102060.56
2022-11-10T00:17:04.662Z,102071.03
2022-11-10T00:19:50.441Z,102068.94
2022-11-10T00:22:37.583Z,102067.06
2022-11-10T00:25:24.705Z,102074.06
2022-11-10T00:28:10.304Z,102078.06
2022-11-10T00:30:56.561Z,102078.06
2022-11-10T00:33:45.038Z,102080.59
2022-11-10T00:36:31.170Z,102079.78
2022-11-10T00:39:17.062Z,102072.72
2022-11-10T00:42:04.325Z,102082.66
2022-11-10T00:44:51.955Z,102078.28
2022-11-10T00:47:37.402Z,102081.94
2022-11-10T00:50:25.977Z,102092.16
2022-11-10T00:53:11.446Z,102093.72
2022-11-10T00:55:57.320Z,102091.13
2022-11-10T00:58:43.288Z,102095.41
2022-11-10T01:01:28.851Z,102091.53
2022-11-10T01:04:15.026Z,102094.88
2022-11-10T01:07:00.667Z,102096.38
2022-11-10T01:09:46.631Z,102091.97
2022-11-10T01:12:32.269Z,102101.41
2022-11-10T01:15:18.659Z,102091.00
2022-11-10T01:18:06.301Z,102097.91
2022-11-10T01:20:52.850Z,102103.63
2022-11-10T01:23:39.080Z,102096.28
2022-11-10T01:26:24.923Z,102105.97
2022-11-10T01:29:10.668Z,102112.31
2022-11-10T01:31:56.112Z,102108.72
2022-11-10T01:34:41.797Z,102113.94
2022-11-10T01:37:27.651Z,102123.59
2022-11-10T01:40:14.099Z,102126.28
2022-11-10T01:43:00.171Z,102118.53
2022-11-10T01:46:01.379Z,102121.72
2022-11-10T01:48:51.903Z,102127.09
2022-11-10T01:51:48.773Z,102125.88
2022-11-10T01:54:39.413Z,102127.56
2022-11-10T01:57:25.464Z,102125.47
2022-11-10T02:00:11.873Z,102132.63
2022-11-10T02:03:17.018Z,102137.66
2022-11-10T02:06:02.883Z,102133.81
2022-11-10T02:08:50.562Z,102131.22
2022-11-10T02:11:39.190Z,102130.31
2022-11-10T02:14:25.533Z,102128.31
2022-11-10T02:17:11.500Z,102122.13
2022-11-10T02:20:05.027Z,102108.16
2022-11-10T02:22:51.504Z,102125.13
2022-11-10T02:25:37.960Z,102134.06
2022-11-10T02:28:24.223Z,102118.47
2022-11-10T02:31:10.417Z,102131.38
2022-11-10T02:33:56.255Z,102128.69
2022-11-10T02:36:41.952Z,102132.28
2022-11-10T02:39:27.850Z,102130.75
2022-11-10T02:42:13.126Z,102132.28
2022-11-10T02:44:59.462Z,102126.97
2022-11-10T02:47:45.191Z,102117.25
2022-11-10T02:50:31.006Z,102128.59
2022-11-10T02:53:17.007Z,102129.91
2022-11-10T02:56:03.005Z,102138.75
2022-11-10T02:58:49.177Z,102143.25
2022-11-10T03:01:34.970Z,102139.47
2022-11-10T03:04:20.972Z,102136.88
2022-11-10T03:07:07.004Z,102149.25
2022-11-10T03:09:52.908Z,102149.97
2022-11-10T03:12:39.003Z,102145.16
2022-11-10T03:15:26.282Z,102155.47
2022-11-10T03:18:11.921Z,102148.88
2022-11-10T03:20:57.531Z,102160.38
2022-11-10T03:23:43.301Z,102151.38
2022-11-10T03:26:29.655Z,102163.78
2022-11-10T03:29:15.129Z,102159.78
2022-11-10T03:32:01.149Z,102172.22
2022-11-10T03:34:46.662Z,102168.56
2022-11-10T03:37:32.631Z,102169.72
2022-11-10T03:40:18.512Z,102172.53
2022-11-10T03:43:04.702Z,102180.47
2022-11-10T03:45:53.433Z,102180.38
2022-11-10T03:48:39.300Z,102175.47
2022-11-10T03:51:25.418Z,102182.53
2022-11-10T03:54:11.324Z,102189.19
2022-11-10T03:56:57.253Z,102185.44
2022-11-10T03:59:43.224Z,102201.28
2022-11-10T04:02:28.488Z,102193.50
2022-11-10T04:05:33.138Z,102196.78
2022-11-10T04:08:37.536Z,102202.97
2022-11-10T04:11:41.409Z,102187.75
2022-11-10T04:14:45.440Z,102201.63
2022-11-10T04:17:31.774Z,102208.59
2022-11-10T04:20:18.260Z,102213.78
2022-11-10T04:23:23.624Z,102208.31
2022-11-10T04:26:32.491Z,102210.19
2022-11-10T04:29:20.253Z,102211.19
2022-11-10T04:32:06.061Z,102204.19
2022-11-10T04:34:52.243Z,102214.63
2022-11-10T04:37:37.770Z,102207.03
2022-11-10T04:40:23.170Z,102208.22
2022-11-10T04:43:09.032Z,102214.91
2022-11-10T04:45:55.256Z,102217.06
2022-11-10T04:48:40.745Z,102198.91
2022-11-10T04:51:30.312Z,102206.84
2022-11-10T04:54:15.853Z,102220.63
2022-11-10T04:57:01.932Z,102204.63
2022-11-10T04:59:48.089Z,102214.47
2022-11-10T05:02:39.241Z,102211.03
2022-11-10T05:05:25.657Z,102198.72
2022-11-10T05:08:11.643Z,102219.22
2022-11-10T05:10:57.490Z,102216.38
2022-11-10T05:13:44.973Z,102223.50
2022-11-10T05:16:44.132Z,102221.72
2022-11-10T05:19:31.662Z,102212.88
2022-11-10T05:22:17.422Z,102219.59
2022-11-10T05:25:03.593Z,102216.53
2022-11-10T05:27:50.248Z,102221.66
2022-11-10T05:30:37.212Z,102168.56
2022-11-10T05:33:26.316Z,102223.59
2022-11-10T05:36:12.715Z,102202.84
2022-11-10T05:38:59.188Z,102219.69
2022-11-10T05:41:45.398Z,102214.47
2022-11-10T05:44:31.707Z,102221.88
2022-11-10T05:47:17.589Z,102227.25
2022-11-10T05:50:03.950Z,102229.41
2022-11-10T05:52:54.624Z,102228.41
2022-11-10T05:55:40.819Z,102229.16
2022-11-10T05:58:26.926Z,102233.63
2022-11-10T06:01:12.813Z,102234.09
2022-11-10T06:03:58.719Z,102229.97
2022-11-10T06:06:44.438Z,102226.13
2022-11-10T06:09:31.712Z,102235.97
2022-11-10T06:12:17.428Z,102243.38
2022-11-10T06:15:03.217Z,102242.91
2022-11-10T06:17:49.228Z,102233.19
2022-11-10T06:20:35.312Z,102249.28
2022-11-10T06:23:21.599Z,102239.69
2022-11-10T06:26:07.374Z,102243.97
2022-11-10T06:28:54.106Z,102236.56
2022-11-10T06:31:39.994Z,102245.59
2022-11-10T06:34:26.062Z,102250.06
2022-11-10T06:37:11.560Z,102244.97
2022-11-10T06:39:57.397Z,102240.50
2022-11-10T06:42:43.028Z,102243.09
2022-11-10T06:45:29.478Z,102235.41
2022-11-10T06:48:15.485Z,102250.38
2022-11-10T06:51:02.369Z,102253.31
2022-11-10T06:53:48.596Z,102263.88
2022-11-10T06:56:35.327Z,102262.16
2022-11-10T06:59:21.810Z,102280.97
2022-11-10T07:02:16.966Z,102285.16
2022-11-10T07:05:03.304Z,102281.97
2022-11-10T07:07:50.384Z,102284.03
2022-11-10T07:10:37.190Z,102289.38
2022-11-10T07:13:24.232Z,102291.25
2022-11-10T07:16:10.641Z,102281.78
2022-11-10T07:18:56.259Z,102291.25
2022-11-10T07:21:42.792Z,102289.56
2022-11-10T07:24:30.641Z,102299.56
2022-11-10T07:27:16.380Z,102296.56
2022-11-10T07:30:01.747Z,102311.63
2022-11-10T07:32:47.573Z,102308.44
2022-11-10T07:35:34.478Z,102302.16
2022-11-10T07:38:20.364Z,102315.06
2022-11-10T07:41:06.071Z,102326.06
2022-11-10T07:43:51.823Z,102317.34
2022-11-10T07:46:37.959Z,102342.34
2022-11-10T07:49:23.966Z,102332.91
2022-11-10T07:52:09.576Z,102349.91
2022-11-10T07:54:55.077Z,102350.34
2022-11-10T07:57:41.524Z,102352.03
2022-11-10T08:00:27.866Z,102348.81
2022-11-10T08:03:16.191Z,102329.19
2022-11-10T08:06:02.367Z,102360.78
2022-11-10T08:08:48.009Z,102354.09
2022-11-10T08:11:33.652Z,102358.50
2022-11-10T08:14:19.879Z,102357.78
2022-11-10T08:17:05.591Z,102360.78
2022-11-10T08:19:51.661Z,102366.56
2022-11-10T08:22:37.609Z,102372.03
2022-11-10T08:25:23.390Z,102367.00
2022-11-10T08:28:11.758Z,102361.97
2022-11-10T08:31:01.451Z,102378.38
2022-11-10T08:33:50.024Z,102378.69
2022-11-10T08:36:37.902Z,102373.78
2022-11-10T08:39:38.144Z,102376.41
2022-11-10T08:42:25.005Z,102383.19
2022-11-10T08:45:10.994Z,102389.59
2022-11-10T08:48:01.555Z,102359.31
2022-11-10T08:50:49.972Z,102385.69
2022-11-10T08:53:36.178Z,102391.38
2022-11-10T08:56:22.109Z,102397.84
2022-11-10T08:59:08.364Z,102397.94
2022-11-10T09:01:54.193Z,102395.63
2022-11-10T09:04:40.319Z,102392.53
2022-11-10T09:07:26.484Z,102394.31
2022-11-10T09:10:14.303Z,102404.47
2022-11-10T09:13:02.135Z,102387.84
2022-11-10T09:15:48.662Z,102404.09
2022-11-10T09:18:34.642Z,102407.97
2022-11-10T09:21:20.496Z,102406.44
2022-11-10T09:24:06.984Z,102407.44
2022-11-10T09:26:53.245Z,102402.88
2022-11-10T09:29:39.439Z,102419.59
2022-11-10T09:32:24.995Z,102404.69
2022-11-10T09:35:11.115Z,102411.00
2022-11-10T09:37:57.098Z,102388.03
2022-11-10T09:41:04.830Z,102408.84
2022-11-10T09:44:16.773Z,102415.31
2022-11-10T09:47:19.013Z,102417.53
2022-11-10T09:50:22.375Z,102390.31
2022-11-10T09:53:18.131Z,102410.47
2022-11-10T09:56:06.044Z,102405.41
2022-11-10T09:58:52.535Z,102405.94
2022-11-10T10:01:50.270Z,102414.94
2022-11-10T10:05:23.755Z,102408.59
2022-11-10T10:08:15.604Z,102413.81
2022-11-10T10:11:27.417Z,102418.50
2022-11-10T10:14:35.229Z,102430.28
2022-11-10T10:17:27.242Z,102443.75
2022-11-10T10:20:40.202Z,102419.00
2022-11-10T10:24:07.257Z,102405.84
2022-11-10T10:26:53.914Z,102442.00
2022-11-10T10:29:49.806Z,102444.75
2022-11-10T10:32:35.722Z,102447.59
2022-11-10T10:35:21.756Z,102436.00
2022-11-10T10:38:19.124Z,102456.81
2022-11-10T10:41:28.068Z,102458.75
2022-11-10T10:44:16.665Z,102460.59
2022-11-10T10:47:04.643Z,102445.81
2022-11-10T10:49:50.712Z,102460.84
2022-11-10T10:52:37.011Z,102448.16
2022-11-10T10:55:28.346Z,102426.31
2022-11-10T10:58:27.753Z,102460.16
2022-11-10T11:01:16.606Z,102458.66
2022-11-10T11:04:26.771Z,102425.94
2022-11-10T11:07:26.266Z,102446.88
2022-11-10T11:10:28.573Z,102455.59
2022-11-10T11:13:22.517Z,102458.25
2022-11-10T11:16:12.772Z,102452.31
2022-11-10T11:18:59.180Z,102452.66
2022-11-10T11:22:09.338Z,102464.38
2022-11-10T11:25:19.514Z,102436.28
2022-11-10T11:28:18.921Z,102466.56
2022-11-10T11:31:19.458Z,102458.34
2022-11-10T11:34:19.641Z,102466.50
2022-11-10T11:37:20.353Z,102453.41
2022-11-10T11:40:47.618Z,102465.91
2022-11-10T11:44:01.344Z,102462.28
2022-11-10T11:47:13.058Z,102466.69
2022-11-10T11:50:02.237Z,102437.56
2022-11-10T11:52:51.190Z,102429.22
2022-11-10T11:55:49.128Z,102459.63
2022-11-10T11:58:48.223Z,102450.44
2022-11-10T12:01:43.688Z,102458.53
2022-11-10T12:04:57.098Z,102442.16
2022-11-10T12:07:55.185Z,102451.31
2022-11-10T12:10:52.112Z,102463.47
2022-11-10T12:13:43.669Z,102453.16
2022-11-10T12:16:34.546Z,102451.06
2022-11-10T12:19:50.075Z,102453.88
2022-11-10T12:22:42.645Z,102455.84
2022-11-10T12:25:42.978Z,102455.91
2022-11-10T12:28:39.480Z,102443.00
2022-11-10T12:31:30.359Z,102438.53
2022-11-10T12:34:37.633Z,102438.91
2022-11-10T12:37:35.929Z,102438.97
2022-11-10T12:40:26.047Z,102434.63
2022-11-10T12:43:26.163Z,102419.59
2022-11-10T12:46:13.265Z,102440.19
2022-11-10T12:49:19.708Z,102447.41
2022-11-10T12:52:24.438Z,102443.88
2022-11-10T12:55:15.227Z,102449.25
2022-11-10T12:58:02.327Z,102426.19
2022-11-10T13:01:01.749Z,102434.66
2022-11-10T13:03:58.141Z,102437.41
2022-11-10T13:06:54.536Z,102435.69
2022-11-10T13:09:45.113Z,102431.50
2022-11-10T13:12:38.391Z,102431.50
2022-11-10T13:15:57.751Z,102419.28
2022-11-10T13:18:43.804Z,102411.72
2022-11-10T13:21:55.855Z,102425.06
2022-11-10T13:24:44.970Z,102416.38
2022-11-10T13:27:34.153Z,102421.34
2022-11-10T13:30:49.430Z,102423.00
2022-11-10T13:33:37.480Z,102415.81
2022-11-10T13:36:53.591Z,102418.25
2022-11-10T13:39:40.089Z,102417.47
2022-11-10T13:42:25.579Z,102420.06
2022-11-10T13:45:32.873Z,102423.34
2022-11-10T13:48:33.522Z,102426.16
2022-11-10T13:51:44.720Z,102420.66
2022-11-10T13:54:44.166Z,102419.00
2022-11-10T13:57:31.722Z,102428.72
2022-11-10T14:00:17.652Z,102426.16
2022-11-10T14:03:05.611Z,102432.19
2022-11-10T14:05:57.486Z,102431.28
2022-11-10T14:08:51.361Z,102426.81
2022-11-10T14:11:43.663Z,102425.72
2022-11-10T14:14:52.880Z,102431.34
2022-11-10T14:17:54.177Z,102423.28
2022-11-10T14:20:43.923Z,102425.78
2022-11-10T14:23:36.339Z,102428.41
2022-11-10T14:26:28.310Z,102405.75
2022-11-10T14:29:32.237Z,102439.63
2022-11-10T14:32:22.248Z,102439.31
2022-11-10T14:35:19.957Z,102435.69
2022-11-10T14:38:07.546Z,102444.47
2022-11-10T14:40:59.331Z,102442.31
2022-11-10T14:43:45.282Z,102440.56
2022-11-10T14:46:31.108Z,102438.59
2022-11-10T14:49:23.543Z,102449.41
2022-11-10T14:52:14.206Z,102442.31
2022-11-10T14:55:06.817Z,102445.69
2022-11-10T14:58:12.443Z,102449.97
2022-11-10T15:00:58.202Z,102448.25
2022-11-10T15:03:44.648Z,102445.63
2022-11-10T15:06:31.842Z,102448.06
2022-11-10T15:09:38.779Z,102456.75
2022-11-10T15:12:28.070Z,102453.06
2022-11-10T15:15:23.543Z,102457.41
2022-11-10T15:18:30.815Z,102469.41
2022-11-10T15:21:20.771Z,102462.31
2022-11-10T15:24:07.616Z,102454.84
2022-11-10T15:26:53.572Z,102461.88
2022-11-10T15:29:39.345Z,102467.88
2022-11-10T15:32:41.045Z,102472.09
2022-11-10T15:35:30.731Z,102472.66
2022-11-10T15:38:21.153Z,102447.56
2022-11-10T15:41:17.470Z,102456.06
2022-11-10T15:44:16.331Z,102479.22
2022-11-10T15:47:01.917Z,102467.56
2022-11-10T15:49:48.321Z,102485.22
2022-11-10T15:52:33.777Z,102479.91
2022-11-10T15:55:21.438Z,102485.16
2022-11-10T15:58:33.307Z,102479.31
2022-11-10T16:01:22.358Z,102490.75
2022-11-10T16:04:11.989Z,102492.19
2022-11-10T16:06:58.529Z,102496.22
2022-11-10T16:09:44.662Z,102484.00
2022-11-10T16:12:31.376Z,102490.31
2022-11-10T16:15:21.123Z,102482.97
2022-11-10T16:18:17.022Z,102497.84
2022-11-10T16:21:02.671Z,102494.41
2022-11-10T16:23:49.569Z,102492.72
2022-11-10T16:26:35.731Z,102490.63
2022-11-10T16:29:21.792Z,102507.59
2022-11-10T16:32:07.415Z,102498.81
2022-11-10T16:34:53.186Z,102502.13
2022-11-10T16:37:43.674Z,102496.75
2022-11-10T16:40:30.319Z,102494.06
2022-11-10T16:43:17.945Z,102493.78
2022-11-10T16:46:07.850Z,102480.91
2022-11-10T16:48:57.746Z,102512.69
2022-11-10T16:51:48.730Z,102491.94
2022-11-10T16:54:35.050Z,102510.72
2022-11-10T16:57:21.073Z,102498.38
2022-11-10T17:00:07.592Z,102504.50
2022-11-10T17:03:02.468Z,102508.97
2022-11-10T17:05:49.446Z,102496.66
2022-11-10T17:08:36.211Z,102485.75
2022-11-10T17:11:22.562Z,102467.03
2022-11-10T17:14:11.107Z,102499.16
2022-11-10T17:16:56.888Z,102496.56
2022-11-10T17:19:43.256Z,102504.72
2022-11-10T17:22:34.131Z,102511.47
2022-11-10T17:25:27.989Z,102514.09
2022-11-10T17:28:16.300Z,102510.41
2022-11-10T17:31:03.493Z,102511.22
2022-11-10T17:33:49.316Z,102514.75
2022-11-10T17:36:35.420Z,102509.75
2022-11-10T17:39:22.822Z,102505.34
2022-11-10T17:42:14.096Z,102495.66
2022-11-10T17:45:00.305Z,102499.34
2022-11-10T17:47:47.850Z,102517.66
2022-11-10T17:50:35.906Z,102517.56
2022-11-10T17:53:29.216Z,102513.03
2022-11-10T17:56:14.980Z,102515.50
2022-11-10T17:59:01.628Z,102506.75
2022-11-10T18:01:47.587Z,102502.41
2022-11-10T18:04:33.858Z,102519.59
2022-11-10T18:07:20.089Z,102518.88
2022-11-10T18:10:10.967Z,102518.44
2022-11-10T18:12:56.503Z,102481.69
2022-11-10T18:15:47.016Z,102506.56
2022-11-10T18:18:32.623Z,102510.91
2022-11-10T18:21:18.998Z,102523.19
2022-11-10T18:24:05.422Z,102510.91
2022-11-10T18:26:54.391Z,102514.16
2022-11-10T18:29:40.970Z,102496.41
2022-11-10T18:32:27.145Z,102515.94
2022-11-10T18:35:18.409Z,102516.84
2022-11-10T18:38:06.854Z,102522.06
2022-11-10T18:40:53.951Z,102522.91
2022-11-10T18:43:40.011Z,102520.16
2022-11-10T18:46:26.019Z,102509.50
2022-11-10T18:49:16.209Z,102525.38
2022-11-10T18:52:05.100Z,102521.88
2022-11-10T18:54:51.200Z,102518.31
2022-11-10T18:57:38.677Z,102515.72
2022-11-10T19:00:28.245Z,102505.91
2022-11-10T19:03:14.200Z,102518.25
2022-11-10T19:06:00.097Z,102514.53
2022-11-10T19:08:46.625Z,102488.47
2022-11-10T19:11:34.509Z,102521.47
2022-11-10T19:14:20.114Z,102515.19
2022-11-10T19:17:06.411Z,102509.13
2022-11-10T19:19:56.231Z,102508.47
2022-11-10T19:22:43.623Z,102509.88
2022-11-10T19:25:30.066Z,102506.34
2022-11-10T19:28:25.062Z,102491.56
2022-11-10T19:31:14.141Z,102498.66
2022-11-10T19:33:59.990Z,102502.09
2022-11-10T19:36:47.013Z,102476.91
2022-11-10T19:39:33.268Z,102489.44
2022-11-10T19:42:19.527Z,102506.44
2022-11-10T19:45:05.671Z,102500.66
2022-11-10T19:47:51.845Z,102501.56
2022-11-10T19:50:37.758Z,102501.63
2022-11-10T19:53:24.152Z,102495.22
2022-11-10T19:56:16.083Z,102496.13
2022-11-10T19:59:04.237Z,102491.78
2022-11-10T20:01:50.548Z,102498.13
2022-11-10T20:04:56.333Z,102482.13
2022-11-10T20:08:09.715Z,102480.56
2022-11-10T20:11:08.913Z,102478.56
2022-11-10T20:14:04.286Z,102469.72
2022-11-10T20:16:50.209Z,102488.41
2022-11-10T20:19:41.071Z,102483.94
2022-11-10T20:22:29.021Z,102483.09
2022-11-10T20:25:15.052Z,102490.00
2022-11-10T20:28:04.135Z,102482.66
2022-11-10T20:30:52.066Z,102464.19
2022-11-10T20:33:38.680Z,102487.25
2022-11-10T20:36:27.930Z,102467.28
2022-11-10T20:39:14.064Z,102478.63
2022-11-10T20:41:59.759Z,102483.88
2022-11-10T20:44:45.626Z,102484.59
2022-11-10T20:47:31.248Z,102466.00
2022-11-10T20:50:23.121Z,102490.00
2022-11-10T22:46:00.881Z,102471.97
2022-11-10T22:48:46.936Z,102471.03
2022-11-10T22:51:33.920Z,102468.41
2022-11-10T22:54:22.711Z,102441.66
2022-11-10T22:57:08.444Z,102466.56
2022-11-10T22:59:54.575Z,102470.00
2022-11-10T23:02:40.262Z,102478.81
2022-11-10T23:05:25.834Z,102477.09
2022-11-10T23:08:11.997Z,102486.59
2022-11-10T23:11:02.332Z,102491.00
2022-11-10T23:13:50.030Z,102490.03
2022-11-10T23:16:35.772Z,102484.66
2022-11-10T23:19:21.633Z,102490.25
2022-11-10T23:22:07.462Z,102461.84
2022-11-10T23:24:57.075Z,102471.97
2022-11-10T23:27:43.335Z,102479.97
2022-11-10T23:30:29.329Z,102490.28
2022-11-10T23:33:15.021Z,102492.63
2022-11-10T23:36:01.579Z,102496.28
2022-11-10T23:38:49.137Z,102499.72
2022-11-10T23:41:34.795Z,102490.91
2022-11-10T23:44:21.138Z,102490.59
2022-11-10T23:47:07.000Z,102482.81
2022-11-10T23:49:55.277Z,102492.56
2022-11-10T23:52:41.241Z,102486.13
2022-11-10T23:55:28.220Z,102490.03
2022-11-10T23:58:13.654Z,102487.25
